sensor_id;sensor_type;location;lat;lon;timestamp;P1;durP1;ratioP1;P2;durP2;ratioP2
62990;SDS011;49084;48.204;16.202;2023-02-26T00:01:26;1.45;;;1.35;;
62990;SDS011;49084;48.204;16.202;2023-02-26T00:03:54;3.95;;;1.80;;
62990;SDS011;49084;48.204;16.202;2023-02-26T00:06:23;1.98;;;1.60;;
62990;SDS011;49084;48.204;16.202;2023-02-26T00:08:50;3.50;;;1.70;;
62990;SDS011;49084;48.204;16.202;2023-02-26T00:11:15;3.40;;;1.50;;
62990;SDS011;49084;48.204;16.202;2023-02-26T00:13:42;2.95;;;1.88;;
62990;SDS011;49084;48.204;16.202;2023-02-26T00:18:53;3.10;;;1.60;;
62990;SDS011;49084;48.204;16.202;2023-02-26T00:21:23;2.50;;;1.80;;
62990;SDS011;49084;48.204;16.202;2023-02-26T00:23:49;1.38;;;1.17;;
62990;SDS011;49084;48.204;16.202;2023-02-26T00:26:15;2.47;;;1.77;;
62990;SDS011;49084;48.204;16.202;2023-02-26T00:28:41;1.70;;;1.60;;
62990;SDS011;49084;48.204;16.202;2023-02-26T00:31:08;1.58;;;1.48;;
62990;SDS011;49084;48.204;16.202;2023-02-26T00:33:34;2.67;;;2.03;;
62990;SDS011;49084;48.204;16.202;2023-02-26T00:41:37;1.65;;;1.55;;
62990;SDS011;49084;48.204;16.202;2023-02-26T00:44:03;2.15;;;1.55;;
62990;SDS011;49084;48.204;16.202;2023-02-26T00:52:45;2.20;;;1.90;;
62990;SDS011;49084;48.204;16.202;2023-02-26T00:55:13;2.20;;;1.85;;
62990;SDS011;49084;48.204;16.202;2023-02-26T00:57:39;2.15;;;1.70;;
62990;SDS011;49084;48.204;16.202;2023-02-26T01:00:05;2.83;;;2.00;;
62990;SDS011;49084;48.204;16.202;2023-02-26T01:02:35;2.55;;;1.98;;
62990;SDS011;49084;48.204;16.202;2023-02-26T01:05:01;2.53;;;1.70;;
62990;SDS011;49084;48.204;16.202;2023-02-26T01:07:28;1.75;;;1.65;;
62990;SDS011;49084;48.204;16.202;2023-02-26T01:09:57;1.95;;;1.80;;
62990;SDS011;49084;48.204;16.202;2023-02-26T01:12:22;2.40;;;1.75;;
62990;SDS011;49084;48.204;16.202;2023-02-26T01:14:48;1.70;;;1.60;;
62990;SDS011;49084;48.204;16.202;2023-02-26T01:25:34;1.55;;;1.30;;
62990;SDS011;49084;48.204;16.202;2023-02-26T01:28:05;2.40;;;1.60;;
62990;SDS011;49084;48.204;16.202;2023-02-26T01:30:31;1.75;;;1.55;;
62990;SDS011;49084;48.204;16.202;2023-02-26T01:33:01;1.80;;;1.70;;
62990;SDS011;49084;48.204;16.202;2023-02-26T01:35:51;3.28;;;2.05;;
62990;SDS011;49084;48.204;16.202;2023-02-26T01:38:27;1.33;;;1.23;;
62990;SDS011;49084;48.204;16.202;2023-02-26T01:48:52;1.70;;;1.58;;
62990;SDS011;49084;48.204;16.202;2023-02-26T01:51:43;2.25;;;1.20;;
62990;SDS011;49084;48.204;16.202;2023-02-26T01:54:12;1.00;;;1.00;;
62990;SDS011;49084;48.204;16.202;2023-02-26T01:56:39;1.60;;;1.45;;
62990;SDS011;49084;48.204;16.202;2023-02-26T01:59:05;1.30;;;1.17;;
62990;SDS011;49084;48.204;16.202;2023-02-26T02:01:36;1.58;;;0.82;;
62990;SDS011;49084;48.204;16.202;2023-02-26T02:04:04;1.02;;;1.00;;
62990;SDS011;49084;48.204;16.202;2023-02-26T02:06:33;0.90;;;0.90;;
62990;SDS011;49084;48.204;16.202;2023-02-26T02:09:00;4.63;;;0.98;;
62990;SDS011;49084;48.204;16.202;2023-02-26T02:11:28;1.23;;;1.10;;
62990;SDS011;49084;48.204;16.202;2023-02-26T02:16:48;1.73;;;1.30;;
62990;SDS011;49084;48.204;16.202;2023-02-26T02:30:22;2.78;;;1.30;;
62990;SDS011;49084;48.204;16.202;2023-02-26T02:32:55;3.20;;;1.10;;
62990;SDS011;49084;48.204;16.202;2023-02-26T02:35:28;1.40;;;1.20;;
62990;SDS011;49084;48.204;16.202;2023-02-26T02:38:18;1.13;;;1.02;;
62990;SDS011;49084;48.204;16.202;2023-02-26T02:40:50;5.10;;;1.33;;
62990;SDS011;49084;48.204;16.202;2023-02-26T02:43:22;1.92;;;1.48;;
62990;SDS011;49084;48.204;16.202;2023-02-26T02:45:53;2.88;;;1.60;;
62990;SDS011;49084;48.204;16.202;2023-02-26T02:51:33;3.22;;;1.38;;
62990;SDS011;49084;48.204;16.202;2023-02-26T02:54:39;2.45;;;1.63;;
62990;SDS011;49084;48.204;16.202;2023-02-26T02:57:22;2.53;;;1.67;;
62990;SDS011;49084;48.204;16.202;2023-02-26T02:59:57;3.10;;;1.63;;
62990;SDS011;49084;48.204;16.202;2023-02-26T03:02:49;3.33;;;1.98;;
62990;SDS011;49084;48.204;16.202;2023-02-26T03:07:46;2.00;;;1.55;;
62990;SDS011;49084;48.204;16.202;2023-02-26T03:10:20;1.90;;;1.70;;
62990;SDS011;49084;48.204;16.202;2023-02-26T03:12:46;1.50;;;1.40;;
62990;SDS011;49084;48.204;16.202;2023-02-26T03:15:12;1.77;;;1.65;;
62990;SDS011;49084;48.204;16.202;2023-02-26T03:17:50;1.95;;;1.77;;
62990;SDS011;49084;48.204;16.202;2023-02-26T03:20:25;2.40;;;1.77;;
62990;SDS011;49084;48.204;16.202;2023-02-26T03:23:08;5.80;;;1.67;;
62990;SDS011;49084;48.204;16.202;2023-02-26T03:28:30;2.90;;;1.88;;
62990;SDS011;49084;48.204;16.202;2023-02-26T03:31:11;3.60;;;1.60;;
62990;SDS011;49084;48.204;16.202;2023-02-26T03:36:29;5.20;;;1.85;;
62990;SDS011;49084;48.204;16.202;2023-02-26T03:39:03;2.35;;;1.70;;
62990;SDS011;49084;48.204;16.202;2023-02-26T03:44:07;1.40;;;1.25;;
62990;SDS011;49084;48.204;16.202;2023-02-26T03:46:43;6.22;;;2.10;;
62990;SDS011;49084;48.204;16.202;2023-02-26T03:51:45;3.28;;;1.33;;
62990;SDS011;49084;48.204;16.202;2023-02-26T03:54:18;2.30;;;1.60;;
62990;SDS011;49084;48.204;16.202;2023-02-26T03:56:47;1.80;;;1.50;;
62990;SDS011;49084;48.204;16.202;2023-02-26T03:59:14;1.48;;;1.38;;
62990;SDS011;49084;48.204;16.202;2023-02-26T04:01:43;2.95;;;1.90;;
62990;SDS011;49084;48.204;16.202;2023-02-26T04:07:11;2.40;;;1.70;;
62990;SDS011;49084;48.204;16.202;2023-02-26T04:09:40;1.97;;;1.77;;
62990;SDS011;49084;48.204;16.202;2023-02-26T04:12:06;2.17;;;1.63;;
62990;SDS011;49084;48.204;16.202;2023-02-26T04:14:32;3.72;;;1.88;;
62990;SDS011;49084;48.204;16.202;2023-02-26T04:16:58;3.45;;;2.10;;
62990;SDS011;49084;48.204;16.202;2023-02-26T04:19:23;2.03;;;1.63;;
62990;SDS011;49084;48.204;16.202;2023-02-26T04:21:49;2.90;;;1.95;;
62990;SDS011;49084;48.204;16.202;2023-02-26T04:24:15;1.73;;;1.63;;
62990;SDS011;49084;48.204;16.202;2023-02-26T04:26:41;2.15;;;1.95;;
62990;SDS011;49084;48.204;16.202;2023-02-26T04:29:06;2.67;;;2.08;;
62990;SDS011;49084;48.204;16.202;2023-02-26T04:31:32;3.70;;;1.90;;
62990;SDS011;49084;48.204;16.202;2023-02-26T04:33:58;2.92;;;2.10;;
62990;SDS011;49084;48.204;16.202;2023-02-26T04:36:23;3.10;;;2.35;;
62990;SDS011;49084;48.204;16.202;2023-02-26T04:38:49;2.28;;;1.83;;
62990;SDS011;49084;48.204;16.202;2023-02-26T04:41:15;2.40;;;2.20;;
62990;SDS011;49084;48.204;16.202;2023-02-26T04:43:40;2.72;;;2.30;;
62990;SDS011;49084;48.204;16.202;2023-02-26T04:46:06;2.30;;;2.10;;
62990;SDS011;49084;48.204;16.202;2023-02-26T04:48:32;2.63;;;2.30;;
62990;SDS011;49084;48.204;16.202;2023-02-26T04:50:57;5.90;;;2.30;;
62990;SDS011;49084;48.204;16.202;2023-02-26T04:53:23;2.30;;;2.10;;
62990;SDS011;49084;48.204;16.202;2023-02-26T04:55:49;3.15;;;2.22;;
62990;SDS011;49084;48.204;16.202;2023-02-26T04:58:15;2.95;;;2.20;;
62990;SDS011;49084;48.204;16.202;2023-02-26T05:00:41;4.32;;;2.65;;
62990;SDS011;49084;48.204;16.202;2023-02-26T05:03:07;3.08;;;2.75;;
62990;SDS011;49084;48.204;16.202;2023-02-26T05:05:34;4.07;;;2.70;;
62990;SDS011;49084;48.204;16.202;2023-02-26T05:08:00;4.60;;;2.88;;
62990;SDS011;49084;48.204;16.202;2023-02-26T05:10:25;2.92;;;2.65;;
62990;SDS011;49084;48.204;16.202;2023-02-26T05:12:51;4.00;;;2.88;;
62990;SDS011;49084;48.204;16.202;2023-02-26T05:15:17;3.30;;;2.78;;
62990;SDS011;49084;48.204;16.202;2023-02-26T05:17:43;3.03;;;2.72;;
62990;SDS011;49084;48.204;16.202;2023-02-26T05:20:08;4.20;;;2.70;;
62990;SDS011;49084;48.204;16.202;2023-02-26T05:22:35;3.10;;;2.80;;
62990;SDS011;49084;48.204;16.202;2023-02-26T05:25:02;3.42;;;3.13;;
62990;SDS011;49084;48.204;16.202;2023-02-26T05:27:29;3.67;;;3.00;;
62990;SDS011;49084;48.204;16.202;2023-02-26T05:29:54;7.30;;;3.20;;
62990;SDS011;49084;48.204;16.202;2023-02-26T05:32:20;4.18;;;3.17;;
62990;SDS011;49084;48.204;16.202;2023-02-26T05:34:46;7.28;;;4.40;;
62990;SDS011;49084;48.204;16.202;2023-02-26T05:37:11;5.78;;;3.20;;
62990;SDS011;49084;48.204;16.202;2023-02-26T05:39:38;5.55;;;4.03;;
62990;SDS011;49084;48.204;16.202;2023-02-26T05:42:05;3.38;;;2.75;;
62990;SDS011;49084;48.204;16.202;2023-02-26T05:44:32;3.55;;;2.97;;
62990;SDS011;49084;48.204;16.202;2023-02-26T05:46:59;3.72;;;3.05;;
62990;SDS011;49084;48.204;16.202;2023-02-26T05:49:25;3.88;;;3.20;;
62990;SDS011;49084;48.204;16.202;2023-02-26T05:51:51;4.60;;;3.42;;
62990;SDS011;49084;48.204;16.202;2023-02-26T05:54:17;6.05;;;3.92;;
62990;SDS011;49084;48.204;16.202;2023-02-26T05:56:42;14.82;;;5.50;;
62990;SDS011;49084;48.204;16.202;2023-02-26T05:59:08;7.20;;;4.05;;
62990;SDS011;49084;48.204;16.202;2023-02-26T06:01:34;7.25;;;4.50;;
62990;SDS011;49084;48.204;16.202;2023-02-26T06:06:29;6.80;;;4.10;;
62990;SDS011;49084;48.204;16.202;2023-02-26T06:08:55;9.68;;;4.75;;
62990;SDS011;49084;48.204;16.202;2023-02-26T06:11:21;7.88;;;3.88;;
62990;SDS011;49084;48.204;16.202;2023-02-26T06:13:47;5.85;;;4.10;;
62990;SDS011;49084;48.204;16.202;2023-02-26T06:16:12;4.80;;;3.90;;
62990;SDS011;49084;48.204;16.202;2023-02-26T06:18:38;6.20;;;4.40;;
62990;SDS011;49084;48.204;16.202;2023-02-26T06:21:04;4.85;;;4.30;;
62990;SDS011;49084;48.204;16.202;2023-02-26T06:23:30;4.28;;;3.75;;
62990;SDS011;49084;48.204;16.202;2023-02-26T06:25:55;5.43;;;4.32;;
62990;SDS011;49084;48.204;16.202;2023-02-26T06:28:23;7.35;;;4.43;;
62990;SDS011;49084;48.204;16.202;2023-02-26T06:30:53;5.30;;;4.10;;
62990;SDS011;49084;48.204;16.202;2023-02-26T06:33:19;8.20;;;4.57;;
62990;SDS011;49084;48.204;16.202;2023-02-26T06:35:45;8.52;;;4.57;;
62990;SDS011;49084;48.204;16.202;2023-02-26T06:38:12;5.78;;;4.03;;
62990;SDS011;49084;48.204;16.202;2023-02-26T06:40:38;7.55;;;4.45;;
62990;SDS011;49084;48.204;16.202;2023-02-26T06:43:03;7.65;;;4.93;;
62990;SDS011;49084;48.204;16.202;2023-02-26T06:45:29;6.22;;;4.43;;
62990;SDS011;49084;48.204;16.202;2023-02-26T06:47:55;7.65;;;4.63;;
62990;SDS011;49084;48.204;16.202;2023-02-26T06:50:20;7.20;;;4.50;;
62990;SDS011;49084;48.204;16.202;2023-02-26T06:52:46;6.40;;;4.80;;
62990;SDS011;49084;48.204;16.202;2023-02-26T06:55:12;6.00;;;4.50;;
62990;SDS011;49084;48.204;16.202;2023-02-26T06:57:38;7.20;;;5.30;;
62990;SDS011;49084;48.204;16.202;2023-02-26T07:00:04;7.43;;;5.40;;
62990;SDS011;49084;48.204;16.202;2023-02-26T07:02:30;8.10;;;6.43;;
62990;SDS011;49084;48.204;16.202;2023-02-26T07:04:57;9.57;;;5.60;;
62990;SDS011;49084;48.204;16.202;2023-02-26T07:07:22;7.97;;;5.97;;
62990;SDS011;49084;48.204;16.202;2023-02-26T07:09:48;10.02;;;6.25;;
62990;SDS011;49084;48.204;16.202;2023-02-26T07:12:14;10.65;;;5.28;;
62990;SDS011;49084;48.204;16.202;2023-02-26T07:14:40;7.82;;;5.85;;
62990;SDS011;49084;48.204;16.202;2023-02-26T07:17:07;10.55;;;5.68;;
62990;SDS011;49084;48.204;16.202;2023-02-26T07:19:33;7.30;;;5.15;;
62990;SDS011;49084;48.204;16.202;2023-02-26T07:21:58;8.02;;;5.47;;
62990;SDS011;49084;48.204;16.202;2023-02-26T07:24:24;7.63;;;5.20;;
62990;SDS011;49084;48.204;16.202;2023-02-26T07:26:50;9.32;;;5.07;;
62990;SDS011;49084;48.204;16.202;2023-02-26T07:29:16;7.25;;;4.97;;
62990;SDS011;49084;48.204;16.202;2023-02-26T07:31:42;7.45;;;5.75;;
62990;SDS011;49084;48.204;16.202;2023-02-26T07:34:07;6.13;;;4.35;;
62990;SDS011;49084;48.204;16.202;2023-02-26T07:36:33;4.90;;;3.90;;
62990;SDS011;49084;48.204;16.202;2023-02-26T07:38:58;6.65;;;4.30;;
62990;SDS011;49084;48.204;16.202;2023-02-26T07:41:24;5.47;;;4.43;;
62990;SDS011;49084;48.204;16.202;2023-02-26T07:43:50;10.20;;;4.70;;
62990;SDS011;49084;48.204;16.202;2023-02-26T07:46:15;5.30;;;4.28;;
62990;SDS011;49084;48.204;16.202;2023-02-26T07:48:41;5.55;;;4.15;;
62990;SDS011;49084;48.204;16.202;2023-02-26T07:51:07;6.18;;;4.95;;
62990;SDS011;49084;48.204;16.202;2023-02-26T07:53:35;4.80;;;3.63;;
62990;SDS011;49084;48.204;16.202;2023-02-26T07:56:01;4.85;;;3.83;;
62990;SDS011;49084;48.204;16.202;2023-02-26T07:58:28;7.32;;;4.43;;
62990;SDS011;49084;48.204;16.202;2023-02-26T08:00:53;7.50;;;3.70;;
62990;SDS011;49084;48.204;16.202;2023-02-26T08:03:19;6.70;;;3.65;;
62990;SDS011;49084;48.204;16.202;2023-02-26T08:05:45;6.82;;;4.00;;
62990;SDS011;49084;48.204;16.202;2023-02-26T08:08:11;6.43;;;4.00;;
62990;SDS011;49084;48.204;16.202;2023-02-26T08:10:37;5.70;;;4.50;;
62990;SDS011;49084;48.204;16.202;2023-02-26T08:13:03;7.15;;;5.28;;
62990;SDS011;49084;48.204;16.202;2023-02-26T08:15:29;4.43;;;3.85;;
62990;SDS011;49084;48.204;16.202;2023-02-26T08:17:55;5.13;;;4.00;;
62990;SDS011;49084;48.204;16.202;2023-02-26T08:20:21;3.63;;;3.30;;
62990;SDS011;49084;48.204;16.202;2023-02-26T08:22:47;3.72;;;3.35;;
62990;SDS011;49084;48.204;16.202;2023-02-26T08:25:14;4.63;;;3.25;;
62990;SDS011;49084;48.204;16.202;2023-02-26T08:27:39;3.92;;;3.40;;
62990;SDS011;49084;48.204;16.202;2023-02-26T08:30:05;4.50;;;3.88;;
62990;SDS011;49084;48.204;16.202;2023-02-26T08:32:32;3.15;;;2.53;;
62990;SDS011;49084;48.204;16.202;2023-02-26T08:34:58;5.95;;;2.65;;
62990;SDS011;49084;48.204;16.202;2023-02-26T08:37:23;6.28;;;2.85;;
62990;SDS011;49084;48.204;16.202;2023-02-26T08:39:50;4.85;;;3.10;;
62990;SDS011;49084;48.204;16.202;2023-02-26T08:42:16;3.55;;;3.13;;
62990;SDS011;49084;48.204;16.202;2023-02-26T08:44:44;2.70;;;2.47;;
62990;SDS011;49084;48.204;16.202;2023-02-26T08:47:10;4.45;;;2.33;;
62990;SDS011;49084;48.204;16.202;2023-02-26T08:49:36;5.65;;;3.25;;
62990;SDS011;49084;48.204;16.202;2023-02-26T08:52:02;5.00;;;2.90;;
62990;SDS011;49084;48.204;16.202;2023-02-26T08:54:28;2.35;;;1.73;;
62990;SDS011;49084;48.204;16.202;2023-02-26T08:56:53;2.13;;;1.58;;
62990;SDS011;49084;48.204;16.202;2023-02-26T08:59:21;1.95;;;1.40;;
62990;SDS011;49084;48.204;16.202;2023-02-26T09:01:50;3.00;;;1.75;;
62990;SDS011;49084;48.204;16.202;2023-02-26T09:04:16;2.10;;;1.52;;
62990;SDS011;49084;48.204;16.202;2023-02-26T09:06:41;2.03;;;1.30;;
62990;SDS011;49084;48.204;16.202;2023-02-26T09:09:07;1.70;;;1.00;;
62990;SDS011;49084;48.204;16.202;2023-02-26T09:11:34;1.88;;;1.55;;
62990;SDS011;49084;48.204;16.202;2023-02-26T09:14:00;1.20;;;1.10;;
62990;SDS011;49084;48.204;16.202;2023-02-26T09:16:27;4.40;;;1.38;;
62990;SDS011;49084;48.204;16.202;2023-02-26T09:18:54;3.42;;;1.50;;
62990;SDS011;49084;48.204;16.202;2023-02-26T09:21:20;1.25;;;0.70;;
62990;SDS011;49084;48.204;16.202;2023-02-26T09:23:46;3.50;;;0.98;;
62990;SDS011;49084;48.204;16.202;2023-02-26T09:26:12;1.63;;;1.10;;
62990;SDS011;49084;48.204;16.202;2023-02-26T09:28:38;1.08;;;1.05;;
62990;SDS011;49084;48.204;16.202;2023-02-26T09:31:03;1.90;;;0.98;;
62990;SDS011;49084;48.204;16.202;2023-02-26T09:33:31;1.45;;;0.95;;
62990;SDS011;49084;48.204;16.202;2023-02-26T09:35:57;2.58;;;0.90;;
62990;SDS011;49084;48.204;16.202;2023-02-26T09:38:23;1.35;;;0.80;;
62990;SDS011;49084;48.204;16.202;2023-02-26T09:49:18;1.30;;;0.70;;
62990;SDS011;49084;48.204;16.202;2023-02-26T09:51:52;0.60;;;0.60;;
62990;SDS011;49084;48.204;16.202;2023-02-26T09:54:23;0.70;;;0.70;;
62990;SDS011;49084;48.204;16.202;2023-02-26T09:56:52;1.00;;;0.50;;
62990;SDS011;49084;48.204;16.202;2023-02-26T09:59:20;0.90;;;0.80;;
62990;SDS011;49084;48.204;16.202;2023-02-26T10:04:47;0.60;;;0.60;;
62990;SDS011;49084;48.204;16.202;2023-02-26T10:07:39;0.52;;;0.52;;
62990;SDS011;49084;48.204;16.202;2023-02-26T10:13:04;0.73;;;0.73;;
62990;SDS011;49084;48.204;16.202;2023-02-26T10:15:37;1.98;;;0.75;;
62990;SDS011;49084;48.204;16.202;2023-02-26T10:20:38;1.58;;;0.65;;
62990;SDS011;49084;48.204;16.202;2023-02-26T10:23:29;0.88;;;0.30;;
62990;SDS011;49084;48.204;16.202;2023-02-26T10:46:40;0.47;;;0.40;;
62990;SDS011;49084;48.204;16.202;2023-02-26T10:50:03;5.13;;;0.87;;
62990;SDS011;49084;48.204;16.202;2023-02-26T10:52:17;1.70;;;0.65;;
62990;SDS011;49084;48.204;16.202;2023-02-26T10:54:59;2.65;;;0.68;;
62990;SDS011;49084;48.204;16.202;2023-02-26T10:57:41;2.33;;;0.60;;
62990;SDS011;49084;48.204;16.202;2023-02-26T11:00:16;1.25;;;0.60;;
62990;SDS011;49084;48.204;16.202;2023-02-26T11:02:48;6.68;;;0.70;;
62990;SDS011;49084;48.204;16.202;2023-02-26T11:05:23;2.42;;;0.50;;
62990;SDS011;49084;48.204;16.202;2023-02-26T11:10:52;1.58;;;0.88;;
62990;SDS011;49084;48.204;16.202;2023-02-26T11:13:24;4.72;;;0.80;;
62990;SDS011;49084;48.204;16.202;2023-02-26T11:15:51;1.80;;;1.13;;
62990;SDS011;49084;48.204;16.202;2023-02-26T11:18:40;4.07;;;0.80;;
62990;SDS011;49084;48.204;16.202;2023-02-26T11:21:20;1.58;;;0.73;;
62990;SDS011;49084;48.204;16.202;2023-02-26T11:23:55;2.88;;;0.60;;
62990;SDS011;49084;48.204;16.202;2023-02-26T11:26:36;8.75;;;0.60;;
62990;SDS011;49084;48.204;16.202;2023-02-26T11:29:03;3.90;;;0.40;;
62990;SDS011;49084;48.204;16.202;2023-02-26T11:31:29;2.38;;;0.52;;
62990;SDS011;49084;48.204;16.202;2023-02-26T11:34:04;2.67;;;0.60;;
62990;SDS011;49084;48.204;16.202;2023-02-26T11:36:36;9.20;;;0.93;;
62990;SDS011;49084;48.204;16.202;2023-02-26T11:39:15;1.38;;;0.88;;
62990;SDS011;49084;48.204;16.202;2023-02-26T11:41:44;1.50;;;0.40;;
62990;SDS011;49084;48.204;16.202;2023-02-26T11:44:16;0.75;;;0.40;;
62990;SDS011;49084;48.204;16.202;2023-02-26T11:46:55;2.35;;;0.50;;
62990;SDS011;49084;48.204;16.202;2023-02-26T11:49:23;0.38;;;0.38;;
62990;SDS011;49084;48.204;16.202;2023-02-26T11:54:40;1.50;;;0.53;;
62990;SDS011;49084;48.204;16.202;2023-02-26T11:57:18;1.00;;;0.60;;
62990;SDS011;49084;48.204;16.202;2023-02-26T11:59:50;2.70;;;0.75;;
62990;SDS011;49084;48.204;16.202;2023-02-26T12:02:19;2.80;;;0.70;;
62990;SDS011;49084;48.204;16.202;2023-02-26T12:04:51;3.95;;;0.70;;
62990;SDS011;49084;48.204;16.202;2023-02-26T12:07:19;2.90;;;0.80;;
62990;SDS011;49084;48.204;16.202;2023-02-26T12:09:46;1.30;;;0.50;;
62990;SDS011;49084;48.204;16.202;2023-02-26T12:14:53;2.88;;;0.70;;
62990;SDS011;49084;48.204;16.202;2023-02-26T12:17:34;1.20;;;0.70;;
62990;SDS011;49084;48.204;16.202;2023-02-26T12:20:16;0.47;;;0.30;;
62990;SDS011;49084;48.204;16.202;2023-02-26T12:36:28;7.32;;;1.42;;
62990;SDS011;49084;48.204;16.202;2023-02-26T12:49:45;1.35;;;0.60;;
62990;SDS011;49084;48.204;16.202;2023-02-26T13:19:24;1.88;;;0.60;;
62990;SDS011;49084;48.204;16.202;2023-02-26T13:22:02;1.05;;;0.40;;
62990;SDS011;49084;48.204;16.202;2023-02-26T13:24:35;0.50;;;0.50;;
62990;SDS011;49084;48.204;16.202;2023-02-26T13:27:06;1.00;;;0.70;;
62990;SDS011;49084;48.204;16.202;2023-02-26T13:29:47;1.23;;;0.88;;
62990;SDS011;49084;48.204;16.202;2023-02-26T13:32:24;0.73;;;0.60;;
62990;SDS011;49084;48.204;16.202;2023-02-26T13:35:00;0.80;;;0.65;;
62990;SDS011;49084;48.204;16.202;2023-02-26T13:37:31;0.70;;;0.65;;
62990;SDS011;49084;48.204;16.202;2023-02-26T13:40:27;1.40;;;0.70;;
62990;SDS011;49084;48.204;16.202;2023-02-26T13:51:35;0.65;;;0.47;;
62990;SDS011;49084;48.204;16.202;2023-02-26T14:01:49;1.23;;;0.98;;
62990;SDS011;49084;48.204;16.202;2023-02-26T14:17:18;1.70;;;0.45;;
62990;SDS011;49084;48.204;16.202;2023-02-26T14:19:43;2.17;;;0.82;;
62990;SDS011;49084;48.204;16.202;2023-02-26T14:22:20;1.23;;;1.13;;
62990;SDS011;49084;48.204;16.202;2023-02-26T14:25:10;5.90;;;1.05;;
62990;SDS011;49084;48.204;16.202;2023-02-26T14:27:40;3.63;;;1.52;;
62990;SDS011;49084;48.204;16.202;2023-02-26T14:35:34;2.10;;;0.82;;
62990;SDS011;49084;48.204;16.202;2023-02-26T14:38:33;10.18;;;1.05;;
62990;SDS011;49084;48.204;16.202;2023-02-26T14:41:04;6.55;;;0.88;;
62990;SDS011;49084;48.204;16.202;2023-02-26T14:43:42;3.60;;;0.90;;
62990;SDS011;49084;48.204;16.202;2023-02-26T14:46:15;5.82;;;0.77;;
62990;SDS011;49084;48.204;16.202;2023-02-26T14:48:42;1.63;;;0.70;;
62990;SDS011;49084;48.204;16.202;2023-02-26T15:04:36;2.58;;;0.88;;
62990;SDS011;49084;48.204;16.202;2023-02-26T15:28:39;3.88;;;1.45;;
62990;SDS011;49084;48.204;16.202;2023-02-26T15:31:08;3.53;;;1.60;;
62990;SDS011;49084;48.204;16.202;2023-02-26T15:33:38;3.38;;;0.70;;
62990;SDS011;49084;48.204;16.202;2023-02-26T15:36:22;2.22;;;1.13;;
62990;SDS011;49084;48.204;16.202;2023-02-26T15:38:54;4.05;;;0.80;;
62990;SDS011;49084;48.204;16.202;2023-02-26T15:41:23;2.25;;;1.05;;
62990;SDS011;49084;48.204;16.202;2023-02-26T15:43:59;4.35;;;2.92;;
62990;SDS011;49084;48.204;16.202;2023-02-26T15:46:49;1.63;;;0.63;;
62990;SDS011;49084;48.204;16.202;2023-02-26T15:49:29;6.38;;;0.93;;
62990;SDS011;49084;48.204;16.202;2023-02-26T15:52:00;5.10;;;1.67;;
62990;SDS011;49084;48.204;16.202;2023-02-26T15:54:37;12.88;;;1.42;;
62990;SDS011;49084;48.204;16.202;2023-02-26T15:57:14;4.70;;;2.20;;
62990;SDS011;49084;48.204;16.202;2023-02-26T15:59:44;2.65;;;0.75;;
62990;SDS011;49084;48.204;16.202;2023-02-26T16:02:13;2.50;;;0.90;;
62990;SDS011;49084;48.204;16.202;2023-02-26T16:04:40;1.23;;;0.77;;
62990;SDS011;49084;48.204;16.202;2023-02-26T16:07:11;2.20;;;0.93;;
62990;SDS011;49084;48.204;16.202;2023-02-26T16:09:43;1.60;;;1.05;;
62990;SDS011;49084;48.204;16.202;2023-02-26T16:12:12;1.75;;;1.00;;
62990;SDS011;49084;48.204;16.202;2023-02-26T16:14:43;1.98;;;0.98;;
62990;SDS011;49084;48.204;16.202;2023-02-26T16:17:30;1.75;;;1.10;;
62990;SDS011;49084;48.204;16.202;2023-02-26T16:20:01;4.25;;;0.93;;
62990;SDS011;49084;48.204;16.202;2023-02-26T16:23:05;4.63;;;0.77;;
62990;SDS011;49084;48.204;16.202;2023-02-26T16:25:30;1.48;;;0.70;;
62990;SDS011;49084;48.204;16.202;2023-02-26T16:28:04;4.35;;;0.98;;
62990;SDS011;49084;48.204;16.202;2023-02-26T16:30:37;1.50;;;1.08;;
62990;SDS011;49084;48.204;16.202;2023-02-26T16:33:09;2.35;;;0.70;;
62990;SDS011;49084;48.204;16.202;2023-02-26T16:35:42;5.47;;;1.45;;
62990;SDS011;49084;48.204;16.202;2023-02-26T16:38:16;5.70;;;1.25;;
62990;SDS011;49084;48.204;16.202;2023-02-26T16:40:55;0.85;;;0.70;;
62990;SDS011;49084;48.204;16.202;2023-02-26T16:43:48;3.63;;;1.02;;
62990;SDS011;49084;48.204;16.202;2023-02-26T16:51:23;2.92;;;1.42;;
62990;SDS011;49084;48.204;16.202;2023-02-26T16:53:54;3.40;;;1.50;;
62990;SDS011;49084;48.204;16.202;2023-02-26T16:56:31;3.50;;;1.30;;
62990;SDS011;49084;48.204;16.202;2023-02-26T17:04:14;3.50;;;1.13;;
62990;SDS011;49084;48.204;16.202;2023-02-26T17:06:45;4.07;;;2.15;;
62990;SDS011;49084;48.204;16.202;2023-02-26T17:11:50;1.83;;;1.20;;
62990;SDS011;49084;48.204;16.202;2023-02-26T17:14:38;12.55;;;1.88;;
62990;SDS011;49084;48.204;16.202;2023-02-26T17:17:08;2.55;;;1.30;;
62990;SDS011;49084;48.204;16.202;2023-02-26T17:19:34;4.25;;;1.35;;
62990;SDS011;49084;48.204;16.202;2023-02-26T17:22:01;7.63;;;1.48;;
62990;SDS011;49084;48.204;16.202;2023-02-26T17:24:34;8.02;;;1.67;;
62990;SDS011;49084;48.204;16.202;2023-02-26T17:27:05;1.55;;;1.17;;
62990;SDS011;49084;48.204;16.202;2023-02-26T17:29:36;3.95;;;1.52;;
62990;SDS011;49084;48.204;16.202;2023-02-26T17:32:04;2.65;;;1.75;;
62990;SDS011;49084;48.204;16.202;2023-02-26T17:34:31;1.58;;;1.45;;
62990;SDS011;49084;48.204;16.202;2023-02-26T17:36:59;8.65;;;3.50;;
62990;SDS011;49084;48.204;16.202;2023-02-26T17:39:29;6.15;;;1.90;;
62990;SDS011;49084;48.204;16.202;2023-02-26T17:41:56;4.85;;;2.25;;
62990;SDS011;49084;48.204;16.202;2023-02-26T17:44:23;6.80;;;1.90;;
62990;SDS011;49084;48.204;16.202;2023-02-26T17:46:49;1.75;;;1.40;;
62990;SDS011;49084;48.204;16.202;2023-02-26T17:49:15;3.03;;;1.60;;
62990;SDS011;49084;48.204;16.202;2023-02-26T17:51:42;2.25;;;1.20;;
62990;SDS011;49084;48.204;16.202;2023-02-26T17:54:08;3.97;;;1.55;;
62990;SDS011;49084;48.204;16.202;2023-02-26T17:56:34;1.88;;;1.17;;
62990;SDS011;49084;48.204;16.202;2023-02-26T17:59:01;1.77;;;1.48;;
62990;SDS011;49084;48.204;16.202;2023-02-26T18:01:29;2.80;;;1.38;;
62990;SDS011;49084;48.204;16.202;2023-02-26T18:03:56;2.88;;;1.25;;
62990;SDS011;49084;48.204;16.202;2023-02-26T18:06:32;5.10;;;2.40;;
62990;SDS011;49084;48.204;16.202;2023-02-26T18:09:00;2.65;;;1.05;;
62990;SDS011;49084;48.204;16.202;2023-02-26T18:11:30;2.25;;;1.20;;
62990;SDS011;49084;48.204;16.202;2023-02-26T18:13:57;7.38;;;1.67;;
62990;SDS011;49084;48.204;16.202;2023-02-26T18:16:27;2.83;;;1.40;;
62990;SDS011;49084;48.204;16.202;2023-02-26T18:18:59;6.72;;;4.15;;
62990;SDS011;49084;48.204;16.202;2023-02-26T18:21:26;1.20;;;1.10;;
62990;SDS011;49084;48.204;16.202;2023-02-26T18:23:52;5.47;;;1.08;;
62990;SDS011;49084;48.204;16.202;2023-02-26T18:26:21;2.47;;;1.30;;
62990;SDS011;49084;48.204;16.202;2023-02-26T18:28:51;2.05;;;1.40;;
62990;SDS011;49084;48.204;16.202;2023-02-26T18:31:19;1.33;;;1.00;;
62990;SDS011;49084;48.204;16.202;2023-02-26T18:33:46;1.52;;;1.05;;
62990;SDS011;49084;48.204;16.202;2023-02-26T18:36:16;1.60;;;1.45;;
62990;SDS011;49084;48.204;16.202;2023-02-26T18:38:54;5.88;;;3.45;;
62990;SDS011;49084;48.204;16.202;2023-02-26T18:41:25;2.85;;;1.42;;
62990;SDS011;49084;48.204;16.202;2023-02-26T18:43:52;19.50;;;7.13;;
62990;SDS011;49084;48.204;16.202;2023-02-26T18:46:18;5.63;;;2.33;;
62990;SDS011;49084;48.204;16.202;2023-02-26T18:48:45;26.63;;;8.25;;
62990;SDS011;49084;48.204;16.202;2023-02-26T18:51:11;9.73;;;4.00;;
62990;SDS011;49084;48.204;16.202;2023-02-26T18:53:39;2.35;;;1.40;;
62990;SDS011;49084;48.204;16.202;2023-02-26T18:56:05;18.40;;;7.28;;